sensor_id;sensor_type;location;lat;lon;timestamp;pressure;altitude;pressure_sealevel;temperature;humidity
74973;BME280;63529;56.320;43.990;2022-12-20T00:01:20;100402.75;;;-3.63;74.29
74973;BME280;63529;56.320;43.990;2022-12-20T00:03:51;100406.81;;;-3.60;74.10
74973;BME280;63529;56.320;43.990;2022-12-20T00:06:18;100399.16;;;-3.62;74.10
74973;BME280;63529;56.320;43.990;2022-12-20T00:08:45;100395.28;;;-3.58;74.23
74973;BME280;63529;56.320;43.990;2022-12-20T00:11:11;100402.78;;;-3.55;74.31
74973;BME280;63529;56.320;43.990;2022-12-20T00:13:37;100400.00;;;-3.53;74.34
74973;BME280;63529;56.320;43.990;2022-12-20T00:16:12;100393.69;;;-3.50;74.45
74973;BME280;63529;56.320;43.990;2022-12-20T00:18:39;100394.31;;;-3.48;74.39
74973;BME280;63529;56.320;43.990;2022-12-20T00:21:07;100395.16;;;-3.48;74.32
74973;BME280;63529;56.320;43.990;2022-12-20T00:23:34;100397.47;;;-3.45;74.49
74973;BME280;63529;56.320;43.990;2022-12-20T00:26:05;100390.28;;;-3.43;74.79
74973;BME280;63529;56.320;43.990;2022-12-20T00:28:34;100381.00;;;-3.37;74.67
74973;BME280;63529;56.320;43.990;2022-12-20T00:31:01;100383.28;;;-3.34;74.91
74973;BME280;63529;56.320;43.990;2022-12-20T00:33:27;100380.69;;;-3.34;74.94
74973;BME280;63529;56.320;43.990;2022-12-20T00:35:54;100383.63;;;-3.29;74.73
74973;BME280;63529;56.320;43.990;2022-12-20T00:38:24;100380.84;;;-3.28;74.99
74973;BME280;63529;56.320;43.990;2022-12-20T00:41:10;100373.84;;;-3.27;74.79
74973;BME280;63529;56.320;43.990;2022-12-20T00:43:38;100379.56;;;-3.23;74.88
74973;BME280;63529;56.320;43.990;2022-12-20T00:46:05;100382.84;;;-3.21;74.89
74973;BME280;63529;56.320;43.990;2022-12-20T00:48:32;100384.34;;;-3.19;74.96
74973;BME280;63529;56.320;43.990;2022-12-20T00:51:00;100396.22;;;-3.16;75.06
74973;BME280;63529;56.320;43.990;2022-12-20T00:53:26;100382.19;;;-3.15;74.96
74973;BME280;63529;56.320;43.990;2022-12-20T00:55:52;100383.84;;;-3.14;74.95
74973;BME280;63529;56.320;43.990;2022-12-20T00:58:19;100387.13;;;-3.12;75.34
74973;BME280;63529;56.320;43.990;2022-12-20T01:00:45;100382.56;;;-3.10;75.25
74973;BME280;63529;56.320;43.990;2022-12-20T01:03:11;100381.41;;;-3.08;75.24
74973;BME280;63529;56.320;43.990;2022-12-20T01:05:37;100382.06;;;-3.06;75.44
74973;BME280;63529;56.320;43.990;2022-12-20T01:08:05;100384.34;;;-3.03;75.26
74973;BME280;63529;56.320;43.990;2022-12-20T01:10:31;100376.34;;;-3.01;75.41
74973;BME280;63529;56.320;43.990;2022-12-20T01:12:58;100373.59;;;-2.99;75.59
74973;BME280;63529;56.320;43.990;2022-12-20T01:15:24;100381.91;;;-2.96;75.55
74973;BME280;63529;56.320;43.990;2022-12-20T01:17:50;100379.94;;;-2.94;75.68
74973;BME280;63529;56.320;43.990;2022-12-20T01:20:16;100370.19;;;-2.92;75.77
74973;BME280;63529;56.320;43.990;2022-12-20T01:22:42;100375.06;;;-2.89;75.82
74973;BME280;63529;56.320;43.990;2022-12-20T01:25:08;100380.81;;;-2.85;75.87
74973;BME280;63529;56.320;43.990;2022-12-20T01:27:34;100385.69;;;-2.82;76.07
74973;BME280;63529;56.320;43.990;2022-12-20T01:30:00;100381.16;;;-2.80;75.91
74973;BME280;63529;56.320;43.990;2022-12-20T01:32:26;100372.31;;;-2.79;75.89
74973;BME280;63529;56.320;43.990;2022-12-20T01:34:53;100388.47;;;-2.76;75.97
74973;BME280;63529;56.320;43.990;2022-12-20T01:37:18;100382.13;;;-2.73;76.13
74973;BME280;63529;56.320;43.990;2022-12-20T01:39:44;100389.78;;;-2.71;76.20
74973;BME280;63529;56.320;43.990;2022-12-20T01:42:13;100378.19;;;-2.69;76.25
74973;BME280;63529;56.320;43.990;2022-12-20T01:47:11;100383.59;;;-2.62;76.20
74973;BME280;63529;56.320;43.990;2022-12-20T01:49:43;100384.41;;;-2.62;76.39
74973;BME280;63529;56.320;43.990;2022-12-20T01:52:15;100387.34;;;-2.57;76.35
74973;BME280;63529;56.320;43.990;2022-12-20T01:54:46;100388.00;;;-2.55;76.22
74973;BME280;63529;56.320;43.990;2022-12-20T01:57:16;100382.75;;;-2.55;76.49
74973;BME280;63529;56.320;43.990;2022-12-20T01:59:45;100391.28;;;-2.53;76.59
74973;BME280;63529;56.320;43.990;2022-12-20T02:02:12;100388.16;;;-2.48;76.36
74973;BME280;63529;56.320;43.990;2022-12-20T02:04:39;100391.28;;;-2.44;76.54
74973;BME280;63529;56.320;43.990;2022-12-20T02:07:06;100393.53;;;-2.41;76.64
74973;BME280;63529;56.320;43.990;2022-12-20T02:09:34;100395.03;;;-2.39;76.63
74973;BME280;63529;56.320;43.990;2022-12-20T02:12:18;100396.31;;;-2.35;76.67
74973;BME280;63529;56.320;43.990;2022-12-20T02:20:45;100404.00;;;-2.25;76.97
74973;BME280;63529;56.320;43.990;2022-12-20T02:31:26;100401.06;;;-2.14;77.25
74973;BME280;63529;56.320;43.990;2022-12-20T02:33:56;100396.97;;;-2.08;77.29
74973;BME280;63529;56.320;43.990;2022-12-20T02:36:23;100389.94;;;-2.08;77.32
74973;BME280;63529;56.320;43.990;2022-12-20T02:38:51;100404.47;;;-2.05;77.39
74973;BME280;63529;56.320;43.990;2022-12-20T02:41:35;100397.28;;;-2.03;77.36
74973;BME280;63529;56.320;43.990;2022-12-20T02:44:07;100393.34;;;-1.99;77.54
74973;BME280;63529;56.320;43.990;2022-12-20T02:46:54;100400.22;;;-1.98;77.67
74973;BME280;63529;56.320;43.990;2022-12-20T02:49:27;100403.47;;;-1.96;77.72
74973;BME280;63529;56.320;43.990;2022-12-20T02:51:55;100402.16;;;-1.92;77.62
74973;BME280;63529;56.320;43.990;2022-12-20T02:54:22;100408.03;;;-1.90;77.54
74973;BME280;63529;56.320;43.990;2022-12-20T02:57:15;100399.22;;;-1.89;77.62
74973;BME280;63529;56.320;43.990;2022-12-20T03:02:19;100408.53;;;-1.86;77.55
74973;BME280;63529;56.320;43.990;2022-12-20T03:04:46;100406.72;;;-1.86;77.63
74973;BME280;63529;56.320;43.990;2022-12-20T03:07:13;100403.78;;;-1.83;77.63
74973;BME280;63529;56.320;43.990;2022-12-20T03:09:42;100408.19;;;-1.83;77.44
74973;BME280;63529;56.320;43.990;2022-12-20T03:12:12;100402.00;;;-1.82;77.60
74973;BME280;63529;56.320;43.990;2022-12-20T03:14:39;100398.41;;;-1.81;77.71
74973;BME280;63529;56.320;43.990;2022-12-20T03:17:07;100394.78;;;-1.80;77.64
74973;BME280;63529;56.320;43.990;2022-12-20T03:19:34;100394.63;;;-1.79;77.69
74973;BME280;63529;56.320;43.990;2022-12-20T03:22:00;100401.31;;;-1.76;77.31
74973;BME280;63529;56.320;43.990;2022-12-20T03:24:26;100408.19;;;-1.75;77.55
74973;BME280;63529;56.320;43.990;2022-12-20T03:26:53;100405.56;;;-1.75;77.62
74973;BME280;63529;56.320;43.990;2022-12-20T03:29:21;100400.34;;;-1.75;77.56
74973;BME280;63529;56.320;43.990;2022-12-20T03:31:47;100397.56;;;-1.74;77.58
74973;BME280;63529;56.320;43.990;2022-12-20T03:34:13;100395.09;;;-1.75;77.55
74973;BME280;63529;56.320;43.990;2022-12-20T03:36:40;100397.72;;;-1.75;77.29
74973;BME280;63529;56.320;43.990;2022-12-20T03:39:06;100400.34;;;-1.75;77.40
74973;BME280;63529;56.320;43.990;2022-12-20T03:41:36;100398.38;;;-1.73;77.40
74973;BME280;63529;56.320;43.990;2022-12-20T03:44:02;100404.41;;;-1.73;77.50
74973;BME280;63529;56.320;43.990;2022-12-20T03:46:29;100400.16;;;-1.74;77.54
74973;BME280;63529;56.320;43.990;2022-12-20T03:48:55;100396.72;;;-1.74;77.19
74973;BME280;63529;56.320;43.990;2022-12-20T03:51:22;100396.91;;;-1.76;77.33
74973;BME280;63529;56.320;43.990;2022-12-20T03:53:48;100404.41;;;-1.73;77.19
74973;BME280;63529;56.320;43.990;2022-12-20T03:56:14;100406.22;;;-1.73;77.32
74973;BME280;63529;56.320;43.990;2022-12-20T03:58:41;100399.00;;;-1.71;77.49
74973;BME280;63529;56.320;43.990;2022-12-20T04:01:25;100404.59;;;-1.74;77.23
74973;BME280;63529;56.320;43.990;2022-12-20T04:03:52;100400.81;;;-1.72;77.24
74973;BME280;63529;56.320;43.990;2022-12-20T04:06:19;100393.94;;;-1.73;77.19
74973;BME280;63529;56.320;43.990;2022-12-20T04:08:45;100386.28;;;-1.74;77.00
74973;BME280;63529;56.320;43.990;2022-12-20T04:11:16;100392.31;;;-1.74;77.08
74973;BME280;63529;56.320;43.990;2022-12-20T04:13:52;100394.28;;;-1.76;77.08
74973;BME280;63529;56.320;43.990;2022-12-20T04:16:22;100389.19;;;-1.77;76.85
74973;BME280;63529;56.320;43.990;2022-12-20T04:18:49;100397.06;;;-1.77;77.01
74973;BME280;63529;56.320;43.990;2022-12-20T04:21:21;100400.66;;;-1.78;76.94
74973;BME280;63529;56.320;43.990;2022-12-20T04:23:47;100397.06;;;-1.77;76.91
74973;BME280;63529;56.320;43.990;2022-12-20T04:26:14;100406.53;;;-1.76;77.06
74973;BME280;63529;56.320;43.990;2022-12-20T04:28:40;100399.34;;;-1.74;77.02
74973;BME280;63529;56.320;43.990;2022-12-20T04:31:09;100405.56;;;-1.75;76.95
74973;BME280;63529;56.320;43.990;2022-12-20T04:33:36;100410.81;;;-1.75;76.96
74973;BME280;63529;56.320;43.990;2022-12-20T04:36:03;100399.53;;;-1.76;76.95
74973;BME280;63529;56.320;43.990;2022-12-20T04:38:30;100402.16;;;-1.76;76.98
74973;BME280;63529;56.320;43.990;2022-12-20T04:40:56;100412.44;;;-1.74;76.79
74973;BME280;63529;56.320;43.990;2022-12-20T04:43:24;100403.91;;;-1.76;76.66
74973;BME280;63529;56.320;43.990;2022-12-20T04:45:54;100404.91;;;-1.77;76.62
74973;BME280;63529;56.320;43.990;2022-12-20T04:48:26;100406.88;;;-1.79;76.26
74973;BME280;63529;56.320;43.990;2022-12-20T04:50:54;100406.25;;;-1.81;76.16
74973;BME280;63529;56.320;43.990;2022-12-20T04:53:22;100405.56;;;-1.83;76.22
74973;BME280;63529;56.320;43.990;2022-12-20T04:56:07;100402.50;;;-1.87;75.73
74973;BME280;63529;56.320;43.990;2022-12-20T04:58:33;100404.97;;;-1.94;75.28
74973;BME280;63529;56.320;43.990;2022-12-20T05:01:00;100398.75;;;-2.01;74.93
74973;BME280;63529;56.320;43.990;2022-12-20T05:03:32;100406.44;;;-2.07;74.55
74973;BME280;63529;56.320;43.990;2022-12-20T05:05:58;100398.78;;;-2.17;74.18
74973;BME280;63529;56.320;43.990;2022-12-20T05:08:25;100402.38;;;-2.26;73.72
74973;BME280;63529;56.320;43.990;2022-12-20T05:10:52;100401.72;;;-2.36;73.62
74973;BME280;63529;56.320;43.990;2022-12-20T05:13:18;100412.19;;;-2.44;73.52
74973;BME280;63529;56.320;43.990;2022-12-20T05:15:50;100413.16;;;-2.54;73.43
74973;BME280;63529;56.320;43.990;2022-12-20T05:18:20;100413.13;;;-2.62;73.19
74973;BME280;63529;56.320;43.990;2022-12-20T05:20:59;100409.72;;;-2.70;72.99
74973;BME280;63529;56.320;43.990;2022-12-20T05:23:47;100417.53;;;-2.79;72.96
74973;BME280;63529;56.320;43.990;2022-12-20T05:27:08;100419.31;;;-2.87;72.90
74973;BME280;63529;56.320;43.990;2022-12-20T05:29:34;100413.09;;;-2.94;72.91
74973;BME280;63529;56.320;43.990;2022-12-20T05:32:00;100421.44;;;-2.99;73.16
74973;BME280;63529;56.320;43.990;2022-12-20T05:34:26;100413.91;;;-3.02;73.10
74973;BME280;63529;56.320;43.990;2022-12-20T05:36:54;100416.03;;;-3.06;73.04
74973;BME280;63529;56.320;43.990;2022-12-20T05:39:22;100415.50;;;-3.09;73.14
74973;BME280;63529;56.320;43.990;2022-12-20T05:41:50;100418.13;;;-3.09;73.24
74973;BME280;63529;56.320;43.990;2022-12-20T05:44:19;100415.50;;;-3.09;73.95
74973;BME280;63529;56.320;43.990;2022-12-20T05:46:49;100423.84;;;-3.06;74.58
74973;BME280;63529;56.320;43.990;2022-12-20T05:49:20;100415.69;;;-3.03;75.18
74973;BME280;63529;56.320;43.990;2022-12-20T05:51:47;100430.72;;;-2.96;75.49
74973;BME280;63529;56.320;43.990;2022-12-20T05:54:23;100421.28;;;-2.89;75.72
74973;BME280;63529;56.320;43.990;2022-12-20T05:56:57;100418.66;;;-2.81;75.87
74973;BME280;63529;56.320;43.990;2022-12-20T05:59:31;100420.00;;;-2.77;75.93
74973;BME280;63529;56.320;43.990;2022-12-20T06:01:57;100419.34;;;-2.71;75.73
74973;BME280;63529;56.320;43.990;2022-12-20T06:04:31;100419.53;;;-2.64;75.59
74973;BME280;63529;56.320;43.990;2022-12-20T06:07:11;100421.50;;;-2.58;75.89
74973;BME280;63529;56.320;43.990;2022-12-20T06:09:45;100425.44;;;-2.54;75.65
74973;BME280;63529;56.320;43.990;2022-12-20T06:12:17;100418.69;;;-2.49;75.67
74973;BME280;63529;56.320;43.990;2022-12-20T06:15:03;100421.47;;;-2.42;75.77
74973;BME280;63529;56.320;43.990;2022-12-20T06:17:30;100426.56;;;-2.40;75.56
74973;BME280;63529;56.320;43.990;2022-12-20T06:19:56;100431.16;;;-2.34;75.54
74973;BME280;63529;56.320;43.990;2022-12-20T06:22:22;100429.00;;;-2.31;75.29
74973;BME280;63529;56.320;43.990;2022-12-20T06:24:53;100425.25;;;-2.28;75.33
74973;BME280;63529;56.320;43.990;2022-12-20T06:27:23;100420.50;;;-2.25;75.35
74973;BME280;63529;56.320;43.990;2022-12-20T06:29:59;100420.03;;;-2.20;75.13
74973;BME280;63529;56.320;43.990;2022-12-20T06:32:34;100423.63;;;-2.13;75.18
74973;BME280;63529;56.320;43.990;2022-12-20T06:35:01;100422.28;;;-2.09;75.15
74973;BME280;63529;56.320;43.990;2022-12-20T06:37:29;100426.38;;;-2.06;75.03
74973;BME280;63529;56.320;43.990;2022-12-20T06:39:55;100421.63;;;-2.03;75.15
74973;BME280;63529;56.320;43.990;2022-12-20T06:42:24;100423.75;;;-1.98;75.16
74973;BME280;63529;56.320;43.990;2022-12-20T06:44:52;100421.47;;;-1.93;74.94
74973;BME280;63529;56.320;43.990;2022-12-20T06:47:18;100417.69;;;-1.91;74.95
74973;BME280;63529;56.320;43.990;2022-12-20T06:49:44;100421.44;;;-1.85;74.96
74973;BME280;63529;56.320;43.990;2022-12-20T06:52:19;100411.47;;;-1.81;74.83
74973;BME280;63529;56.320;43.990;2022-12-20T06:54:48;100411.13;;;-1.78;74.73
74973;BME280;63529;56.320;43.990;2022-12-20T06:57:14;100399.66;;;-1.77;74.88
74973;BME280;63529;56.320;43.990;2022-12-20T06:59:42;100414.06;;;-1.73;74.78
74973;BME280;63529;56.320;43.990;2022-12-20T07:02:12;100405.22;;;-1.72;74.73
74973;BME280;63529;56.320;43.990;2022-12-20T07:04:38;100402.28;;;-1.69;74.73
74973;BME280;63529;56.320;43.990;2022-12-20T07:07:04;100403.56;;;-1.65;74.77
74973;BME280;63529;56.320;43.990;2022-12-20T07:09:31;100405.88;;;-1.62;74.69
74973;BME280;63529;56.320;43.990;2022-12-20T07:11:57;100402.72;;;-1.57;74.85
74973;BME280;63529;56.320;43.990;2022-12-20T07:14:23;100403.66;;;-1.50;74.72
74973;BME280;63529;56.320;43.990;2022-12-20T07:16:49;100399.75;;;-1.46;74.84
74973;BME280;63529;56.320;43.990;2022-12-20T07:19:15;100394.63;;;-1.40;74.73
74973;BME280;63529;56.320;43.990;2022-12-20T07:21:42;100399.56;;;-1.37;74.45
74973;BME280;63529;56.320;43.990;2022-12-20T07:24:08;100393.63;;;-1.30;74.44
74973;BME280;63529;56.320;43.990;2022-12-20T07:26:34;100395.72;;;-1.26;74.41
74973;BME280;63529;56.320;43.990;2022-12-20T07:29:00;100392.59;;;-1.21;74.40
74973;BME280;63529;56.320;43.990;2022-12-20T07:31:26;100400.91;;;-1.18;74.33
74973;BME280;63529;56.320;43.990;2022-12-20T07:33:52;100397.97;;;-1.15;74.52
74973;BME280;63529;56.320;43.990;2022-12-20T07:36:18;100389.41;;;-1.08;74.27
74973;BME280;63529;56.320;43.990;2022-12-20T07:38:45;100391.81;;;-0.99;74.33
74973;BME280;63529;56.320;43.990;2022-12-20T07:41:13;100401.28;;;-0.90;74.24
74973;BME280;63529;56.320;43.990;2022-12-20T07:43:40;100379.94;;;-0.87;74.10
74973;BME280;63529;56.320;43.990;2022-12-20T07:46:06;100386.31;;;-0.81;74.05
74973;BME280;63529;56.320;43.990;2022-12-20T07:48:34;100382.19;;;-0.75;73.96
74973;BME280;63529;56.320;43.990;2022-12-20T07:51:06;100377.22;;;-0.70;74.02
74973;BME280;63529;56.320;43.990;2022-12-20T07:53:35;100373.44;;;-0.68;73.76
74973;BME280;63529;56.320;43.990;2022-12-20T07:56:03;100367.84;;;-0.65;73.90
74973;BME280;63529;56.320;43.990;2022-12-20T07:58:33;100371.09;;;-0.63;73.76
74973;BME280;63529;56.320;43.990;2022-12-20T08:01:00;100367.31;;;-0.60;73.77
74973;BME280;63529;56.320;43.990;2022-12-20T08:03:29;100363.06;;;-0.61;73.74
74973;BME280;63529;56.320;43.990;2022-12-20T08:05:59;100367.31;;;-0.60;73.89
74973;BME280;63529;56.320;43.990;2022-12-20T08:08:31;100363.34;;;-0.56;73.94
74973;BME280;63529;56.320;43.990;2022-12-20T08:10:57;100368.41;;;-0.55;73.67
74973;BME280;63529;56.320;43.990;2022-12-20T08:13:24;100356.78;;;-0.52;73.57
74973;BME280;63529;56.320;43.990;2022-12-20T08:15:50;100349.53;;;-0.50;73.58
74973;BME280;63529;56.320;43.990;2022-12-20T08:18:16;100351.16;;;-0.49;73.70
74973;BME280;63529;56.320;43.990;2022-12-20T08:20:42;100344.09;;;-0.48;73.42
74973;BME280;63529;56.320;43.990;2022-12-20T08:23:08;100350.53;;;-0.51;73.50
74973;BME280;63529;56.320;43.990;2022-12-20T08:25:34;100358.75;;;-0.54;73.64
74973;BME280;63529;56.320;43.990;2022-12-20T08:28:00;100354.50;;;-0.55;73.86
74973;BME280;63529;56.320;43.990;2022-12-20T08:30:27;100354.50;;;-0.55;73.70
74973;BME280;63529;56.320;43.990;2022-12-20T08:32:54;100348.63;;;-0.57;73.58
74973;BME280;63529;56.320;43.990;2022-12-20T08:35:21;100350.25;;;-0.56;74.04
74973;BME280;63529;56.320;43.990;2022-12-20T08:37:50;100356.47;;;-0.57;73.95
74973;BME280;63529;56.320;43.990;2022-12-20T08:40:18;100353.06;;;-0.58;74.08
74973;BME280;63529;56.320;43.990;2022-12-20T08:42:44;100345.34;;;-0.59;73.85
74973;BME280;63529;56.320;43.990;2022-12-20T08:45:10;100347.81;;;-0.58;74.02
74973;BME280;63529;56.320;43.990;2022-12-20T08:47:37;100344.19;;;-0.57;74.08
74973;BME280;63529;56.320;43.990;2022-12-20T08:50:03;100342.81;;;-0.52;73.97
74973;BME280;63529;56.320;43.990;2022-12-20T08:52:29;100341.03;;;-0.52;74.01
74973;BME280;63529;56.320;43.990;2022-12-20T08:54:55;100336.44;;;-0.50;73.93
74973;BME280;63529;56.320;43.990;2022-12-20T08:57:21;100332.44;;;-0.46;73.97
74973;BME280;63529;56.320;43.990;2022-12-20T08:59:47;100323.59;;;-0.45;73.98
74973;BME280;63529;56.320;43.990;2022-12-20T09:02:12;100336.16;;;-0.40;74.17
74973;BME280;63529;56.320;43.990;2022-12-20T09:04:38;100318.28;;;-0.37;74.18
74973;BME280;63529;56.320;43.990;2022-12-20T09:07:05;100324.63;;;-0.31;73.92
74973;BME280;63529;56.320;43.990;2022-12-20T09:09:31;100326.88;;;-0.28;74.16
74973;BME280;63529;56.320;43.990;2022-12-20T09:11:57;100324.72;;;-0.24;74.31
74973;BME280;63529;56.320;43.990;2022-12-20T09:14:23;100322.09;;;-0.24;73.91
74973;BME280;63529;56.320;43.990;2022-12-20T09:16:49;100323.09;;;-0.25;73.97
74973;BME280;63529;56.320;43.990;2022-12-20T09:19:15;100324.53;;;-0.23;73.85
74973;BME280;63529;56.320;43.990;2022-12-20T09:21:41;100315.22;;;-0.25;74.12
74973;BME280;63529;56.320;43.990;2022-12-20T09:24:08;100317.38;;;-0.29;74.12
74973;BME280;63529;56.320;43.990;2022-12-20T09:26:34;100313.94;;;-0.30;73.89
74973;BME280;63529;56.320;43.990;2022-12-20T09:29:01;100307.88;;;-0.30;74.00
74973;BME280;63529;56.320;43.990;2022-12-20T09:31:27;100305.06;;;-0.29;74.16
74973;BME280;63529;56.320;43.990;2022-12-20T09:33:56;100304.06;;;-0.28;74.11
74973;BME280;63529;56.320;43.990;2022-12-20T09:36:23;100306.06;;;-0.30;74.42
74973;BME280;63529;56.320;43.990;2022-12-20T09:38:50;100298.59;;;-0.33;74.50
74973;BME280;63529;56.320;43.990;2022-12-20T09:41:36;100295.13;;;-0.33;74.42
74973;BME280;63529;56.320;43.990;2022-12-20T09:44:24;100294.50;;;-0.35;74.50
74973;BME280;63529;56.320;43.990;2022-12-20T09:46:55;100292.06;;;-0.37;74.47
74973;BME280;63529;56.320;43.990;2022-12-20T09:49:24;100288.81;;;-0.39;74.53
74973;BME280;63529;56.320;43.990;2022-12-20T09:55:25;100281.56;;;-0.37;74.82
74973;BME280;63529;56.320;43.990;2022-12-20T09:58:18;100278.41;;;-0.32;74.77
74973;BME280;63529;56.320;43.990;2022-12-20T10:00:48;100276.41;;;-0.30;74.67
74973;BME280;63529;56.320;43.990;2022-12-20T10:03:40;100274.22;;;-0.27;75.11
74973;BME280;63529;56.320;43.990;2022-12-20T10:08:43;100268.63;;;-0.23;74.75
74973;BME280;63529;56.320;43.990;2022-12-20T10:16:59;100253.53;;;-0.21;74.57
74973;BME280;63529;56.320;43.990;2022-12-20T10:20:36;100238.16;;;-0.24;74.74
74973;BME280;63529;56.320;43.990;2022-12-20T10:25:28;100241.59;;;-0.24;74.82
74973;BME280;63529;56.320;43.990;2022-12-20T10:27:56;100247.03;;;-0.25;74.90
74973;BME280;63529;56.320;43.990;2022-12-20T10:30:25;100240.13;;;-0.27;75.06
74973;BME280;63529;56.320;43.990;2022-12-20T10:32:54;100236.69;;;-0.27;75.02
74973;BME280;63529;56.320;43.990;2022-12-20T10:35:37;100236.06;;;-0.29;74.98
74973;BME280;63529;56.320;43.990;2022-12-20T10:38:12;100231.81;;;-0.30;75.00
74973;BME280;63529;56.320;43.990;2022-12-20T10:40:44;100228.41;;;-0.31;75.05
74973;BME280;63529;56.320;43.990;2022-12-20T10:43:21;100229.22;;;-0.30;75.26
74973;BME280;63529;56.320;43.990;2022-12-20T10:45:57;100221.16;;;-0.29;75.55
74973;BME280;63529;56.320;43.990;2022-12-20T10:51:13;100207.03;;;-0.28;75.52
74973;BME280;63529;56.320;43.990;2022-12-20T10:54:20;100202.44;;;-0.25;75.48
74973;BME280;63529;56.320;43.990;2022-12-20T10:56:40;100197.19;;;-0.25;75.40
74973;BME280;63529;56.320;43.990;2022-12-20T11:01:46;100189.50;;;-0.27;75.29
74973;BME280;63529;56.320;43.990;2022-12-20T11:04:28;100186.06;;;-0.28;75.44
74973;BME280;63529;56.320;43.990;2022-12-20T11:06:55;100191.94;;;-0.25;75.57
74973;BME280;63529;56.320;43.990;2022-12-20T11:09:32;100182.09;;;-0.23;75.72
74973;BME280;63529;56.320;43.990;2022-12-20T11:14:37;100182.69;;;-0.21;75.77
74973;BME280;63529;56.320;43.990;2022-12-20T11:17:14;100181.69;;;-0.20;75.49
74973;BME280;63529;56.320;43.990;2022-12-20T11:28:32;100173.22;;;-0.22;75.78
74973;BME280;63529;56.320;43.990;2022-12-20T11:31:15;100163.09;;;-0.25;75.56
74973;BME280;63529;56.320;43.990;2022-12-20T11:43:03;100151.25;;;-0.36;75.72
74973;BME280;63529;56.320;43.990;2022-12-20T11:51:58;100142.94;;;-0.40;75.94
74973;BME280;63529;56.320;43.990;2022-12-20T11:54:39;100141.31;;;-0.41;75.95
74973;BME280;63529;56.320;43.990;2022-12-20T11:57:14;100132.19;;;-0.45;76.00
74973;BME280;63529;56.320;43.990;2022-12-20T11:59:59;100131.38;;;-0.45;75.95
74973;BME280;63529;56.320;43.990;2022-12-20T12:02:44;100130.94;;;-0.49;75.85
74973;BME280;63529;56.320;43.990;2022-12-20T12:05:19;100125.69;;;-0.49;75.81
74973;BME280;63529;56.320;43.990;2022-12-20T12:07:55;100128.69;;;-0.52;75.83
74973;BME280;63529;56.320;43.990;2022-12-20T12:10:28;100120.34;;;-0.56;75.71
74973;BME280;63529;56.320;43.990;2022-12-20T12:15:47;100124.31;;;-0.60;75.74
74973;BME280;63529;56.320;43.990;2022-12-20T12:18:21;100116.84;;;-0.63;75.61
74973;BME280;63529;56.320;43.990;2022-12-20T12:20:54;100108.50;;;-0.66;75.86
74973;BME280;63529;56.320;43.990;2022-12-20T12:23:42;100116.13;;;-0.71;75.74
74973;BME280;63529;56.320;43.990;2022-12-20T12:26:32;100116.94;;;-0.71;75.98
74973;BME280;63529;56.320;43.990;2022-12-20T12:29:02;100110.25;;;-0.73;76.07
74973;BME280;63529;56.320;43.990;2022-12-20T12:31:53;100101.56;;;-0.74;76.44
74973;BME280;63529;56.320;43.990;2022-12-20T12:45:51;100104.38;;;-0.75;76.31
74973;BME280;63529;56.320;43.990;2022-12-20T12:48:31;100106.38;;;-0.77;76.34
74973;BME280;63529;56.320;43.990;2022-12-20T12:51:01;100099.31;;;-0.77;76.18
74973;BME280;63529;56.320;43.990;2022-12-20T12:55:57;100088.19;;;-0.79;76.47
74973;BME280;63529;56.320;43.990;2022-12-20T13:03:34;100087.38;;;-0.79;76.29
74973;BME280;63529;56.320;43.990;2022-12-20T13:11:40;100078.91;;;-0.82;76.19
74973;BME280;63529;56.320;43.990;2022-12-20T13:24:51;100065.72;;;-0.88;76.24
74973;BME280;63529;56.320;43.990;2022-12-20T13:40:54;100058.84;;;-0.89;76.13
74973;BME280;63529;56.320;43.990;2022-12-20T13:45:50;100058.22;;;-0.91;76.11
74973;BME280;63529;56.320;43.990;2022-12-20T13:48:30;100046.91;;;-0.92;76.16
74973;BME280;63529;56.320;43.990;2022-12-20T13:51:00;100036.41;;;-0.92;75.93
74973;BME280;63529;56.320;43.990;2022-12-20T13:53:27;100044.28;;;-0.92;75.98
74973;BME280;63529;56.320;43.990;2022-12-20T13:55:53;100038.41;;;-0.94;76.06
74973;BME280;63529;56.320;43.990;2022-12-20T13:58:29;100037.59;;;-0.94;76.21
74973;BME280;63529;56.320;43.990;2022-12-20T14:01:12;100034.81;;;-0.93;76.05
74973;BME280;63529;56.320;43.990;2022-12-20T14:03:44;100041.66;;;-0.92;76.11
74973;BME280;63529;56.320;43.990;2022-12-20T14:06:13;100043.31;;;-0.91;76.19
74973;BME280;63529;56.320;43.990;2022-12-20T14:08:46;100033.19;;;-0.94;75.85
74973;BME280;63529;56.320;43.990;2022-12-20T14:11:17;100031.38;;;-0.93;75.87
74973;BME280;63529;56.320;43.990;2022-12-20T14:13:55;100031.38;;;-0.93;76.00
74973;BME280;63529;56.320;43.990;2022-12-20T14:16:23;100027.13;;;-0.94;76.11
74973;BME280;63529;56.320;43.990;2022-12-20T14:18:59;100028.13;;;-0.95;76.12
74973;BME280;63529;56.320;43.990;2022-12-20T14:21:26;100028.94;;;-0.95;75.96
74973;BME280;63529;56.320;43.990;2022-12-20T14:23:55;100032.38;;;-0.94;76.15
74973;BME280;63529;56.320;43.990;2022-12-20T14:26:40;100025.13;;;-0.92;76.11
74973;BME280;63529;56.320;43.990;2022-12-20T14:29:10;100033.19;;;-0.94;76.09
74973;BME280;63529;56.320;43.990;2022-12-20T14:31:40;100022.69;;;-0.94;75.95
74973;BME280;63529;56.320;43.990;2022-12-20T14:36:38;100021.69;;;-0.93;75.87
74973;BME280;63529;56.320;43.990;2022-12-20T14:39:30;100017.28;;;-0.92;75.90
74973;BME280;63529;56.320;43.990;2022-12-20T14:42:01;100023.31;;;-0.92;75.91
74973;BME280;63529;56.320;43.990;2022-12-20T14:44:28;100017.28;;;-0.92;75.97
74973;BME280;63529;56.320;43.990;2022-12-20T14:47:00;100012.84;;;-0.92;76.11
74973;BME280;63529;56.320;43.990;2022-12-20T14:49:29;100019.09;;;-0.93;75.89
74973;BME280;63529;56.320;43.990;2022-12-20T14:54:33;100013.69;;;-0.91;76.10
74973;BME280;63529;56.320;43.990;2022-12-20T14:57:00;100008.25;;;-0.90;76.06
74973;BME280;63529;56.320;43.990;2022-12-20T14:59:28;100003.19;;;-0.91;75.99
74973;BME280;63529;56.320;43.990;2022-12-20T15:01:56;99998.94;;;-0.92;75.83